sensor_id;sensor_type;location;lat;lon;timestamp;temperature;humidity
33095;DHT22;19459;53.044;8.910;2022-08-16T00:01:17;20.80;99.90
33095;DHT22;19459;53.044;8.910;2022-08-16T00:03:44;20.80;99.90
33095;DHT22;19459;53.044;8.910;2022-08-16T00:06:10;20.70;99.90
33095;DHT22;19459;53.044;8.910;2022-08-16T00:08:37;20.70;99.90
33095;DHT22;19459;53.044;8.910;2022-08-16T00:11:08;20.70;99.90
33095;DHT22;19459;53.044;8.910;2022-08-16T00:13:35;20.70;99.90
33095;DHT22;19459;53.044;8.910;2022-08-16T00:16:01;20.70;99.90
33095;DHT22;19459;53.044;8.910;2022-08-16T00:18:28;20.70;99.90
33095;DHT22;19459;53.044;8.910;2022-08-16T00:20:53;20.80;99.90
33095;DHT22;19459;53.044;8.910;2022-08-16T00:23:20;20.70;99.90
33095;DHT22;19459;53.044;8.910;2022-08-16T00:25:46;20.70;99.90
33095;DHT22;19459;53.044;8.910;2022-08-16T00:28:14;20.70;99.90
33095;DHT22;19459;53.044;8.910;2022-08-16T00:30:40;20.70;99.90
33095;DHT22;19459;53.044;8.910;2022-08-16T00:33:06;20.70;99.90
33095;DHT22;19459;53.044;8.910;2022-08-16T00:35:35;20.70;99.90
33095;DHT22;19459;53.044;8.910;2022-08-16T00:38:03;20.70;99.90
33095;DHT22;19459;53.044;8.910;2022-08-16T00:40:45;20.70;99.90
33095;DHT22;19459;53.044;8.910;2022-08-16T00:43:23;20.70;99.90
33095;DHT22;19459;53.044;8.910;2022-08-16T00:46:11;20.60;99.90
33095;DHT22;19459;53.044;8.910;2022-08-16T00:48:41;20.60;99.90
33095;DHT22;19459;53.044;8.910;2022-08-16T00:51:08;20.60;99.90
33095;DHT22;19459;53.044;8.910;2022-08-16T00:53:34;20.60;99.90
33095;DHT22;19459;53.044;8.910;2022-08-16T00:56:05;20.50;99.90
33095;DHT22;19459;53.044;8.910;2022-08-16T00:58:34;20.50;99.90
33095;DHT22;19459;53.044;8.910;2022-08-16T01:01:04;20.50;99.90
33095;DHT22;19459;53.044;8.910;2022-08-16T01:03:31;20.50;99.90
33095;DHT22;19459;53.044;8.910;2022-08-16T01:05:57;20.50;99.90
33095;DHT22;19459;53.044;8.910;2022-08-16T01:08:25;20.50;99.90
33095;DHT22;19459;53.044;8.910;2022-08-16T01:10:52;20.50;99.90
33095;DHT22;19459;53.044;8.910;2022-08-16T01:13:25;20.40;99.90
33095;DHT22;19459;53.044;8.910;2022-08-16T01:15:59;20.40;99.90
33095;DHT22;19459;53.044;8.910;2022-08-16T01:18:44;20.40;99.90
33095;DHT22;19459;53.044;8.910;2022-08-16T01:26:52;20.40;99.90
33095;DHT22;19459;53.044;8.910;2022-08-16T01:29:27;20.40;99.90
33095;DHT22;19459;53.044;8.910;2022-08-16T01:31:56;20.40;99.90
33095;DHT22;19459;53.044;8.910;2022-08-16T01:34:22;20.40;99.90
33095;DHT22;19459;53.044;8.910;2022-08-16T01:36:48;20.30;99.90
33095;DHT22;19459;53.044;8.910;2022-08-16T01:39:21;20.40;99.90
33095;DHT22;19459;53.044;8.910;2022-08-16T01:41:47;20.40;99.90
33095;DHT22;19459;53.044;8.910;2022-08-16T01:44:13;20.40;99.90
33095;DHT22;19459;53.044;8.910;2022-08-16T01:46:42;20.40;99.90
33095;DHT22;19459;53.044;8.910;2022-08-16T01:51:50;20.40;99.90
33095;DHT22;19459;53.044;8.910;2022-08-16T01:54:19;20.50;99.90
33095;DHT22;19459;53.044;8.910;2022-08-16T01:56:45;20.50;99.90
33095;DHT22;19459;53.044;8.910;2022-08-16T01:59:13;20.50;99.90
33095;DHT22;19459;53.044;8.910;2022-08-16T02:01:39;20.50;99.90
33095;DHT22;19459;53.044;8.910;2022-08-16T02:04:06;20.50;99.90
33095;DHT22;19459;53.044;8.910;2022-08-16T02:06:32;20.50;99.90
33095;DHT22;19459;53.044;8.910;2022-08-16T02:08:58;20.50;99.90
33095;DHT22;19459;53.044;8.910;2022-08-16T02:11:26;20.40;99.90
33095;DHT22;19459;53.044;8.910;2022-08-16T02:13:52;20.50;99.90
33095;DHT22;19459;53.044;8.910;2022-08-16T02:16:19;20.40;99.90
33095;DHT22;19459;53.044;8.910;2022-08-16T02:18:46;20.40;99.90
33095;DHT22;19459;53.044;8.910;2022-08-16T02:21:12;20.40;99.90
33095;DHT22;19459;53.044;8.910;2022-08-16T02:23:39;20.40;99.90
33095;DHT22;19459;53.044;8.910;2022-08-16T02:26:06;20.40;99.90
33095;DHT22;19459;53.044;8.910;2022-08-16T02:28:32;20.40;99.90
33095;DHT22;19459;53.044;8.910;2022-08-16T02:31:02;20.40;99.90
33095;DHT22;19459;53.044;8.910;2022-08-16T02:33:34;20.40;99.90
33095;DHT22;19459;53.044;8.910;2022-08-16T02:36:00;20.40;99.90
33095;DHT22;19459;53.044;8.910;2022-08-16T02:38:27;20.40;99.90
33095;DHT22;19459;53.044;8.910;2022-08-16T02:40:55;20.30;99.90
33095;DHT22;19459;53.044;8.910;2022-08-16T02:43:26;20.40;99.90
33095;DHT22;19459;53.044;8.910;2022-08-16T02:45:54;20.30;99.90
33095;DHT22;19459;53.044;8.910;2022-08-16T02:48:21;20.20;99.90
33095;DHT22;19459;53.044;8.910;2022-08-16T02:50:47;20.20;99.90
33095;DHT22;19459;53.044;8.910;2022-08-16T02:53:13;20.20;99.90
33095;DHT22;19459;53.044;8.910;2022-08-16T02:55:38;20.20;99.90
33095;DHT22;19459;53.044;8.910;2022-08-16T02:58:04;20.10;99.90
33095;DHT22;19459;53.044;8.910;2022-08-16T03:00:31;20.00;99.90
33095;DHT22;19459;53.044;8.910;2022-08-16T03:02:57;20.00;99.90
33095;DHT22;19459;53.044;8.910;2022-08-16T03:05:24;20.00;99.90
33095;DHT22;19459;53.044;8.910;2022-08-16T03:07:50;20.00;99.90
33095;DHT22;19459;53.044;8.910;2022-08-16T03:10:16;19.90;99.90
33095;DHT22;19459;53.044;8.910;2022-08-16T03:12:42;19.90;99.90
33095;DHT22;19459;53.044;8.910;2022-08-16T03:15:10;19.90;99.90
33095;DHT22;19459;53.044;8.910;2022-08-16T03:17:37;19.80;99.90
33095;DHT22;19459;53.044;8.910;2022-08-16T03:20:06;19.80;99.90
33095;DHT22;19459;53.044;8.910;2022-08-16T03:22:33;19.80;99.90
33095;DHT22;19459;53.044;8.910;2022-08-16T03:25:02;19.70;99.90
33095;DHT22;19459;53.044;8.910;2022-08-16T03:27:31;19.70;99.90
33095;DHT22;19459;53.044;8.910;2022-08-16T03:30:12;19.70;99.90
33095;DHT22;19459;53.044;8.910;2022-08-16T03:32:40;19.70;99.90
33095;DHT22;19459;53.044;8.910;2022-08-16T03:35:07;19.70;99.90
33095;DHT22;19459;53.044;8.910;2022-08-16T03:37:34;19.70;99.90
33095;DHT22;19459;53.044;8.910;2022-08-16T03:40:00;19.70;99.90
33095;DHT22;19459;53.044;8.910;2022-08-16T03:42:26;19.60;99.90
33095;DHT22;19459;53.044;8.910;2022-08-16T03:44:52;19.60;99.90
33095;DHT22;19459;53.044;8.910;2022-08-16T03:47:17;19.60;99.90
33095;DHT22;19459;53.044;8.910;2022-08-16T03:49:43;19.50;99.90
33095;DHT22;19459;53.044;8.910;2022-08-16T03:52:09;19.50;99.90
33095;DHT22;19459;53.044;8.910;2022-08-16T03:54:37;19.50;99.90
33095;DHT22;19459;53.044;8.910;2022-08-16T03:57:04;19.40;99.90
33095;DHT22;19459;53.044;8.910;2022-08-16T03:59:30;19.40;99.90
33095;DHT22;19459;53.044;8.910;2022-08-16T04:01:58;19.40;99.90
33095;DHT22;19459;53.044;8.910;2022-08-16T04:04:25;19.40;99.90
33095;DHT22;19459;53.044;8.910;2022-08-16T04:06:51;19.30;99.90
33095;DHT22;19459;53.044;8.910;2022-08-16T04:09:16;19.30;99.90
33095;DHT22;19459;53.044;8.910;2022-08-16T04:11:42;19.30;99.90
33095;DHT22;19459;53.044;8.910;2022-08-16T04:14:08;19.30;99.90
33095;DHT22;19459;53.044;8.910;2022-08-16T04:16:33;19.20;99.90
33095;DHT22;19459;53.044;8.910;2022-08-16T04:18:59;19.20;99.90
33095;DHT22;19459;53.044;8.910;2022-08-16T04:21:27;19.20;99.90
33095;DHT22;19459;53.044;8.910;2022-08-16T04:23:53;19.20;99.90
33095;DHT22;19459;53.044;8.910;2022-08-16T04:26:19;19.20;99.90
33095;DHT22;19459;53.044;8.910;2022-08-16T04:28:45;19.20;99.90
33095;DHT22;19459;53.044;8.910;2022-08-16T04:31:11;19.20;99.90
33095;DHT22;19459;53.044;8.910;2022-08-16T04:33:36;19.20;99.90
33095;DHT22;19459;53.044;8.910;2022-08-16T04:36:03;19.20;99.90
33095;DHT22;19459;53.044;8.910;2022-08-16T04:38:29;19.20;99.90
33095;DHT22;19459;53.044;8.910;2022-08-16T04:40:54;19.20;99.90
33095;DHT22;19459;53.044;8.910;2022-08-16T04:43:21;19.20;99.90
33095;DHT22;19459;53.044;8.910;2022-08-16T04:45:47;19.30;99.90
33095;DHT22;19459;53.044;8.910;2022-08-16T04:48:13;19.40;99.90
33095;DHT22;19459;53.044;8.910;2022-08-16T04:50:39;19.30;99.90
33095;DHT22;19459;53.044;8.910;2022-08-16T04:53:05;19.30;99.90
33095;DHT22;19459;53.044;8.910;2022-08-16T04:55:31;19.40;99.90
33095;DHT22;19459;53.044;8.910;2022-08-16T04:57:57;19.40;99.90
33095;DHT22;19459;53.044;8.910;2022-08-16T05:00:27;19.50;99.90
33095;DHT22;19459;53.044;8.910;2022-08-16T05:03:08;19.50;99.90
33095;DHT22;19459;53.044;8.910;2022-08-16T05:05:38;19.60;99.90
33095;DHT22;19459;53.044;8.910;2022-08-16T05:08:06;19.60;99.90
33095;DHT22;19459;53.044;8.910;2022-08-16T05:10:32;19.70;99.90
33095;DHT22;19459;53.044;8.910;2022-08-16T05:13:00;19.80;99.90
33095;DHT22;19459;53.044;8.910;2022-08-16T05:15:26;19.80;99.90
33095;DHT22;19459;53.044;8.910;2022-08-16T05:17:53;19.80;99.90
33095;DHT22;19459;53.044;8.910;2022-08-16T05:20:19;19.80;99.90
33095;DHT22;19459;53.044;8.910;2022-08-16T05:22:47;19.90;99.90
33095;DHT22;19459;53.044;8.910;2022-08-16T05:25:13;19.80;99.90
33095;DHT22;19459;53.044;8.910;2022-08-16T05:27:40;19.80;99.90
33095;DHT22;19459;53.044;8.910;2022-08-16T05:30:09;19.90;99.90
33095;DHT22;19459;53.044;8.910;2022-08-16T05:32:39;19.90;99.90
33095;DHT22;19459;53.044;8.910;2022-08-16T05:35:08;19.90;99.90
33095;DHT22;19459;53.044;8.910;2022-08-16T05:37:36;20.00;99.90
33095;DHT22;19459;53.044;8.910;2022-08-16T05:40:04;20.00;99.90
33095;DHT22;19459;53.044;8.910;2022-08-16T05:42:32;20.10;99.90
33095;DHT22;19459;53.044;8.910;2022-08-16T05:44:57;20.10;99.90
33095;DHT22;19459;53.044;8.910;2022-08-16T05:47:25;20.10;99.90
33095;DHT22;19459;53.044;8.910;2022-08-16T05:49:54;20.20;99.90
33095;DHT22;19459;53.044;8.910;2022-08-16T05:52:20;20.20;99.90
33095;DHT22;19459;53.044;8.910;2022-08-16T05:54:45;20.30;99.90
33095;DHT22;19459;53.044;8.910;2022-08-16T05:57:11;20.40;99.90
33095;DHT22;19459;53.044;8.910;2022-08-16T05:59:37;20.40;99.90
33095;DHT22;19459;53.044;8.910;2022-08-16T06:02:04;20.40;99.90
33095;DHT22;19459;53.044;8.910;2022-08-16T06:04:31;20.50;99.90
33095;DHT22;19459;53.044;8.910;2022-08-16T06:06:57;20.50;99.90
33095;DHT22;19459;53.044;8.910;2022-08-16T06:09:24;20.60;99.90
33095;DHT22;19459;53.044;8.910;2022-08-16T06:11:51;20.70;99.90
33095;DHT22;19459;53.044;8.910;2022-08-16T06:14:17;20.70;99.90
33095;DHT22;19459;53.044;8.910;2022-08-16T06:16:44;20.80;99.90
33095;DHT22;19459;53.044;8.910;2022-08-16T06:19:09;20.90;99.90
33095;DHT22;19459;53.044;8.910;2022-08-16T06:21:35;20.90;99.90
33095;DHT22;19459;53.044;8.910;2022-08-16T06:24:02;20.90;99.90
33095;DHT22;19459;53.044;8.910;2022-08-16T06:26:28;21.00;99.90
33095;DHT22;19459;53.044;8.910;2022-08-16T06:28:54;21.10;99.90
33095;DHT22;19459;53.044;8.910;2022-08-16T06:31:20;21.20;99.90
33095;DHT22;19459;53.044;8.910;2022-08-16T06:33:46;21.30;99.90
33095;DHT22;19459;53.044;8.910;2022-08-16T06:36:12;21.40;99.90
33095;DHT22;19459;53.044;8.910;2022-08-16T06:38:39;21.50;99.90
33095;DHT22;19459;53.044;8.910;2022-08-16T06:41:07;21.60;99.90
33095;DHT22;19459;53.044;8.910;2022-08-16T06:43:33;21.70;99.90
33095;DHT22;19459;53.044;8.910;2022-08-16T06:46:01;21.80;99.90
33095;DHT22;19459;53.044;8.910;2022-08-16T06:48:28;21.90;99.90
33095;DHT22;19459;53.044;8.910;2022-08-16T06:50:54;22.00;99.90
33095;DHT22;19459;53.044;8.910;2022-08-16T06:53:22;22.10;99.90
33095;DHT22;19459;53.044;8.910;2022-08-16T06:55:48;22.20;99.90
33095;DHT22;19459;53.044;8.910;2022-08-16T06:58:14;22.30;99.90
33095;DHT22;19459;53.044;8.910;2022-08-16T07:00:40;22.40;99.90
33095;DHT22;19459;53.044;8.910;2022-08-16T07:03:06;22.50;99.90
33095;DHT22;19459;53.044;8.910;2022-08-16T07:05:32;22.50;99.90
33095;DHT22;19459;53.044;8.910;2022-08-16T07:07:58;22.60;99.90
33095;DHT22;19459;53.044;8.910;2022-08-16T07:10:29;22.80;99.90
33095;DHT22;19459;53.044;8.910;2022-08-16T07:12:57;22.80;99.90
33095;DHT22;19459;53.044;8.910;2022-08-16T07:15:23;22.90;99.90
33095;DHT22;19459;53.044;8.910;2022-08-16T07:17:49;22.90;99.90
33095;DHT22;19459;53.044;8.910;2022-08-16T07:20:15;23.00;99.90
33095;DHT22;19459;53.044;8.910;2022-08-16T07:22:44;23.10;99.90
33095;DHT22;19459;53.044;8.910;2022-08-16T07:25:14;23.10;99.90
33095;DHT22;19459;53.044;8.910;2022-08-16T07:27:40;23.30;99.90
33095;DHT22;19459;53.044;8.910;2022-08-16T07:30:11;23.40;99.90
33095;DHT22;19459;53.044;8.910;2022-08-16T07:32:38;23.30;99.90
33095;DHT22;19459;53.044;8.910;2022-08-16T07:35:05;23.30;99.90
33095;DHT22;19459;53.044;8.910;2022-08-16T07:37:31;23.50;99.90
33095;DHT22;19459;53.044;8.910;2022-08-16T07:39:57;23.70;99.90
33095;DHT22;19459;53.044;8.910;2022-08-16T07:42:23;23.60;99.90
33095;DHT22;19459;53.044;8.910;2022-08-16T07:44:49;23.50;99.90
33095;DHT22;19459;53.044;8.910;2022-08-16T07:47:15;23.50;99.90
33095;DHT22;19459;53.044;8.910;2022-08-16T07:49:40;23.50;99.90
33095;DHT22;19459;53.044;8.910;2022-08-16T07:52:06;23.70;99.90
33095;DHT22;19459;53.044;8.910;2022-08-16T07:54:32;23.80;99.90
33095;DHT22;19459;53.044;8.910;2022-08-16T07:56:58;24.00;99.90
33095;DHT22;19459;53.044;8.910;2022-08-16T07:59:24;24.10;99.90
33095;DHT22;19459;53.044;8.910;2022-08-16T08:01:50;24.30;99.90
33095;DHT22;19459;53.044;8.910;2022-08-16T08:04:18;24.40;99.90
33095;DHT22;19459;53.044;8.910;2022-08-16T08:06:44;24.40;99.90
33095;DHT22;19459;53.044;8.910;2022-08-16T08:09:10;24.50;99.90
33095;DHT22;19459;53.044;8.910;2022-08-16T08:11:36;24.60;99.90
33095;DHT22;19459;53.044;8.910;2022-08-16T08:14:03;24.70;99.90
33095;DHT22;19459;53.044;8.910;2022-08-16T08:16:30;24.70;99.90
33095;DHT22;19459;53.044;8.910;2022-08-16T08:18:58;24.90;99.90
33095;DHT22;19459;53.044;8.910;2022-08-16T08:21:25;25.00;99.90
33095;DHT22;19459;53.044;8.910;2022-08-16T08:23:51;25.30;99.90
33095;DHT22;19459;53.044;8.910;2022-08-16T08:26:18;25.40;99.90
33095;DHT22;19459;53.044;8.910;2022-08-16T08:28:44;25.70;99.90
33095;DHT22;19459;53.044;8.910;2022-08-16T08:31:10;25.90;99.90
33095;DHT22;19459;53.044;8.910;2022-08-16T08:33:36;26.10;99.90
33095;DHT22;19459;53.044;8.910;2022-08-16T08:36:05;26.10;99.90
33095;DHT22;19459;53.044;8.910;2022-08-16T08:38:33;26.50;99.90
33095;DHT22;19459;53.044;8.910;2022-08-16T08:41:00;26.70;99.90
33095;DHT22;19459;53.044;8.910;2022-08-16T08:43:27;26.40;99.90
33095;DHT22;19459;53.044;8.910;2022-08-16T08:45:54;26.60;99.90
33095;DHT22;19459;53.044;8.910;2022-08-16T08:48:20;26.90;99.80
33095;DHT22;19459;53.044;8.910;2022-08-16T08:50:46;27.00;99.60
33095;DHT22;19459;53.044;8.910;2022-08-16T08:53:12;27.00;99.60
33095;DHT22;19459;53.044;8.910;2022-08-16T08:55:38;26.70;99.00
33095;DHT22;19459;53.044;8.910;2022-08-16T08:58:04;26.70;99.00
33095;DHT22;19459;53.044;8.910;2022-08-16T09:00:30;26.70;99.40
33095;DHT22;19459;53.044;8.910;2022-08-16T09:02:56;26.80;99.70
33095;DHT22;19459;53.044;8.910;2022-08-16T09:05:23;26.60;99.00
33095;DHT22;19459;53.044;8.910;2022-08-16T09:07:52;26.50;99.30
33095;DHT22;19459;53.044;8.910;2022-08-16T09:10:20;26.60;99.70
33095;DHT22;19459;53.044;8.910;2022-08-16T09:12:47;26.70;99.00
33095;DHT22;19459;53.044;8.910;2022-08-16T09:15:15;26.90;99.00
33095;DHT22;19459;53.044;8.910;2022-08-16T09:17:41;26.90;98.80
33095;DHT22;19459;53.044;8.910;2022-08-16T09:20:09;26.70;98.40
33095;DHT22;19459;53.044;8.910;2022-08-16T09:22:38;26.60;99.30
33095;DHT22;19459;53.044;8.910;2022-08-16T09:25:04;26.60;99.10
33095;DHT22;19459;53.044;8.910;2022-08-16T09:27:30;26.70;99.00
33095;DHT22;19459;53.044;8.910;2022-08-16T09:29:56;26.70;99.40
33095;DHT22;19459;53.044;8.910;2022-08-16T09:32:22;26.50;98.80
33095;DHT22;19459;53.044;8.910;2022-08-16T09:34:47;26.30;99.40
33095;DHT22;19459;53.044;8.910;2022-08-16T09:37:13;26.50;99.80
33095;DHT22;19459;53.044;8.910;2022-08-16T09:39:41;26.50;99.60
33095;DHT22;19459;53.044;8.910;2022-08-16T09:42:07;26.60;99.50
33095;DHT22;19459;53.044;8.910;2022-08-16T09:44:33;26.70;99.50
33095;DHT22;19459;53.044;8.910;2022-08-16T09:47:01;26.80;99.60
33095;DHT22;19459;53.044;8.910;2022-08-16T09:49:26;26.80;99.00
33095;DHT22;19459;53.044;8.910;2022-08-16T09:51:52;26.90;98.50
33095;DHT22;19459;53.044;8.910;2022-08-16T09:54:24;27.00;97.90
33095;DHT22;19459;53.044;8.910;2022-08-16T09:56:50;27.20;98.70
33095;DHT22;19459;53.044;8.910;2022-08-16T09:59:17;27.20;98.10
33095;DHT22;19459;53.044;8.910;2022-08-16T10:01:44;27.40;98.60
33095;DHT22;19459;53.044;8.910;2022-08-16T10:04:12;27.20;96.90
33095;DHT22;19459;53.044;8.910;2022-08-16T10:06:40;27.10;97.00
33095;DHT22;19459;53.044;8.910;2022-08-16T10:09:08;27.40;96.90
33095;DHT22;19459;53.044;8.910;2022-08-16T10:11:35;27.80;96.70
33095;DHT22;19459;53.044;8.910;2022-08-16T10:14:22;27.80;95.40
33095;DHT22;19459;53.044;8.910;2022-08-16T10:16:49;27.90;95.70
33095;DHT22;19459;53.044;8.910;2022-08-16T10:19:15;28.10;96.00
33095;DHT22;19459;53.044;8.910;2022-08-16T10:21:42;28.30;95.30
33095;DHT22;19459;53.044;8.910;2022-08-16T10:24:08;28.00;94.70
33095;DHT22;19459;53.044;8.910;2022-08-16T10:26:35;28.40;94.40
33095;DHT22;19459;53.044;8.910;2022-08-16T10:29:03;29.10;93.80
33095;DHT22;19459;53.044;8.910;2022-08-16T10:31:30;29.70;93.00
33095;DHT22;19459;53.044;8.910;2022-08-16T10:33:56;30.10;92.90
33095;DHT22;19459;53.044;8.910;2022-08-16T10:36:22;29.80;92.10
33095;DHT22;19459;53.044;8.910;2022-08-16T10:38:48;29.50;92.40
33095;DHT22;19459;53.044;8.910;2022-08-16T10:41:14;28.70;92.20
33095;DHT22;19459;53.044;8.910;2022-08-16T10:43:40;29.00;92.80
33095;DHT22;19459;53.044;8.910;2022-08-16T10:46:11;28.80;92.20
33095;DHT22;19459;53.044;8.910;2022-08-16T10:48:39;29.30;92.30
33095;DHT22;19459;53.044;8.910;2022-08-16T11:26:27;32.70;83.40
33095;DHT22;19459;53.044;8.910;2022-08-16T11:28:54;32.70;82.90
33095;DHT22;19459;53.044;8.910;2022-08-16T11:31:22;33.30;82.70
33095;DHT22;19459;53.044;8.910;2022-08-16T11:33:48;33.30;80.90
33095;DHT22;19459;53.044;8.910;2022-08-16T11:36:14;33.10;81.80
33095;DHT22;19459;53.044;8.910;2022-08-16T11:38:40;33.70;81.40
33095;DHT22;19459;53.044;8.910;2022-08-16T11:41:06;32.70;80.10
33095;DHT22;19459;53.044;8.910;2022-08-16T11:43:36;32.50;80.20
33095;DHT22;19459;53.044;8.910;2022-08-16T11:46:05;32.10;80.50
33095;DHT22;19459;53.044;8.910;2022-08-16T11:48:33;31.20;82.00
33095;DHT22;19459;53.044;8.910;2022-08-16T11:51:00;31.00;83.20
33095;DHT22;19459;53.044;8.910;2022-08-16T11:53:27;31.20;83.90
33095;DHT22;19459;53.044;8.910;2022-08-16T11:55:55;31.00;82.80
33095;DHT22;19459;53.044;8.910;2022-08-16T11:58:25;31.20;83.50
33095;DHT22;19459;53.044;8.910;2022-08-16T12:00:55;31.80;81.20
33095;DHT22;19459;53.044;8.910;2022-08-16T12:03:24;31.60;80.50
33095;DHT22;19459;53.044;8.910;2022-08-16T12:05:51;31.40;80.00
33095;DHT22;19459;53.044;8.910;2022-08-16T12:08:18;31.00;81.90
33095;DHT22;19459;53.044;8.910;2022-08-16T12:10:45;31.70;84.30
33095;DHT22;19459;53.044;8.910;2022-08-16T12:13:12;32.20;80.90
33095;DHT22;19459;53.044;8.910;2022-08-16T12:15:40;32.40;79.90
33095;DHT22;19459;53.044;8.910;2022-08-16T12:18:06;32.60;78.90
33095;DHT22;19459;53.044;8.910;2022-08-16T12:20:35;31.30;78.70
33095;DHT22;19459;53.044;8.910;2022-08-16T12:23:03;31.50;80.50
33095;DHT22;19459;53.044;8.910;2022-08-16T12:25:31;31.90;80.20
33095;DHT22;19459;53.044;8.910;2022-08-16T12:27:58;32.60;79.90
33095;DHT22;19459;53.044;8.910;2022-08-16T12:30:27;31.60;77.70
33095;DHT22;19459;53.044;8.910;2022-08-16T12:32:59;31.00;79.90
33095;DHT22;19459;53.044;8.910;2022-08-16T12:35:27;31.80;80.80
33095;DHT22;19459;53.044;8.910;2022-08-16T12:38:00;32.00;79.40
33095;DHT22;19459;53.044;8.910;2022-08-16T12:40:30;31.70;79.00
33095;DHT22;19459;53.044;8.910;2022-08-16T12:43:00;31.80;78.70
33095;DHT22;19459;53.044;8.910;2022-08-16T12:45:32;32.40;80.90
33095;DHT22;19459;53.044;8.910;2022-08-16T12:48:00;32.00;78.10
33095;DHT22;19459;53.044;8.910;2022-08-16T12:50:46;31.90;80.40
33095;DHT22;19459;53.044;8.910;2022-08-16T12:53:12;32.40;77.70
33095;DHT22;19459;53.044;8.910;2022-08-16T12:55:38;31.20;77.70
33095;DHT22;19459;53.044;8.910;2022-08-16T12:58:04;31.50;79.10
33095;DHT22;19459;53.044;8.910;2022-08-16T13:02:54;32.20;79.70
33095;DHT22;19459;53.044;8.910;2022-08-16T13:05:23;32.80;79.00
33095;DHT22;19459;53.044;8.910;2022-08-16T13:07:50;33.30;76.30
33095;DHT22;19459;53.044;8.910;2022-08-16T13:10:18;33.40;77.70
33095;DHT22;19459;53.044;8.910;2022-08-16T13:12:49;32.50;75.00
33095;DHT22;19459;53.044;8.910;2022-08-16T13:15:21;31.10;77.30
33095;DHT22;19459;53.044;8.910;2022-08-16T13:17:50;31.00;78.50
33095;DHT22;19459;53.044;8.910;2022-08-16T13:20:20;31.40;80.40
33095;DHT22;19459;53.044;8.910;2022-08-16T13:22:52;32.10;79.40
33095;DHT22;19459;53.044;8.910;2022-08-16T13:25:25;32.40;77.60
33095;DHT22;19459;53.044;8.910;2022-08-16T13:27:54;32.10;77.70
33095;DHT22;19459;53.044;8.910;2022-08-16T13:30:22;32.30;79.90
33095;DHT22;19459;53.044;8.910;2022-08-16T13:32:50;32.20;79.00
33095;DHT22;19459;53.044;8.910;2022-08-16T13:35:17;31.90;80.20
33095;DHT22;19459;53.044;8.910;2022-08-16T13:37:44;31.70;81.20
33095;DHT22;19459;53.044;8.910;2022-08-16T13:40:10;31.10;80.60
33095;DHT22;19459;53.044;8.910;2022-08-16T13:42:37;30.90;81.20
33095;DHT22;19459;53.044;8.910;2022-08-16T13:45:06;30.80;81.90
33095;DHT22;19459;53.044;8.910;2022-08-16T13:47:33;30.50;82.30
33095;DHT22;19459;53.044;8.910;2022-08-16T13:49:59;30.60;83.30
33095;DHT22;19459;53.044;8.910;2022-08-16T13:52:25;30.70;83.30
33095;DHT22;19459;53.044;8.910;2022-08-16T13:54:51;30.60;84.00
33095;DHT22;19459;53.044;8.910;2022-08-16T13:57:17;30.70;84.80
33095;DHT22;19459;53.044;8.910;2022-08-16T13:59:43;30.70;84.40
33095;DHT22;19459;53.044;8.910;2022-08-16T14:02:09;30.60;84.50
33095;DHT22;19459;53.044;8.910;2022-08-16T14:04:39;30.60;85.20
33095;DHT22;19459;53.044;8.910;2022-08-16T14:07:09;30.90;84.60
33095;DHT22;19459;53.044;8.910;2022-08-16T14:09:38;31.30;83.80
33095;DHT22;19459;53.044;8.910;2022-08-16T14:12:12;31.30;81.90
33095;DHT22;19459;53.044;8.910;2022-08-16T14:14:44;32.00;83.70
33095;DHT22;19459;53.044;8.910;2022-08-16T14:17:10;32.20;81.70
33095;DHT22;19459;53.044;8.910;2022-08-16T14:19:36;32.60;81.20
33095;DHT22;19459;53.044;8.910;2022-08-16T14:22:02;32.70;81.20
33095;DHT22;19459;53.044;8.910;2022-08-16T14:24:28;32.90;80.80
33095;DHT22;19459;53.044;8.910;2022-08-16T14:26:54;32.90;80.60
33095;DHT22;19459;53.044;8.910;2022-08-16T14:29:20;33.10;80.90
33095;DHT22;19459;53.044;8.910;2022-08-16T14:31:46;33.10;80.20
33095;DHT22;19459;53.044;8.910;2022-08-16T14:34:12;32.50;78.50
33095;DHT22;19459;53.044;8.910;2022-08-16T14:36:38;32.20;79.10
33095;DHT22;19459;53.044;8.910;2022-08-16T14:39:04;32.20;80.00
33095;DHT22;19459;53.044;8.910;2022-08-16T14:41:30;31.60;79.10
33095;DHT22;19459;53.044;8.910;2022-08-16T14:43:56;31.00;80.20
33095;DHT22;19459;53.044;8.910;2022-08-16T14:46:22;30.80;82.80
33095;DHT22;19459;53.044;8.910;2022-08-16T14:48:48;30.60;81.70
33095;DHT22;19459;53.044;8.910;2022-08-16T14:51:14;30.60;82.90
33095;DHT22;19459;53.044;8.910;2022-08-16T14:53:41;30.60;82.90
33095;DHT22;19459;53.044;8.910;2022-08-16T14:56:07;30.50;82.60
33095;DHT22;19459;53.044;8.910;2022-08-16T14:58:34;30.30;82.90
33095;DHT22;19459;53.044;8.910;2022-08-16T15:01:00;30.30;82.90
33095;DHT22;19459;53.044;8.910;2022-08-16T15:03:27;30.20;83.40
33095;DHT22;19459;53.044;8.910;2022-08-16T15:05:53;30.10;83.60
33095;DHT22;19459;53.044;8.910;2022-08-16T15:08:19;30.00;87.00
33095;DHT22;19459;53.044;8.910;2022-08-16T15:10:45;29.60;92.00
33095;DHT22;19459;53.044;8.910;2022-08-16T15:13:13;28.70;95.60
33095;DHT22;19459;53.044;8.910;2022-08-16T15:15:40;28.30;97.30
33095;DHT22;19459;53.044;8.910;2022-08-16T15:18:07;27.90;99.40
33095;DHT22;19459;53.044;8.910;2022-08-16T15:20:35;27.70;99.90
33095;DHT22;19459;53.044;8.910;2022-08-16T15:23:05;27.70;99.90
33095;DHT22;19459;53.044;8.910;2022-08-16T15:25:38;27.50;99.90
33095;DHT22;19459;53.044;8.910;2022-08-16T15:28:09;27.60;99.90
33095;DHT22;19459;53.044;8.910;2022-08-16T15:30:36;27.60;99.90
33095;DHT22;19459;53.044;8.910;2022-08-16T15:33:05;27.70;99.90
33095;DHT22;19459;53.044;8.910;2022-08-16T15:35:34;27.70;99.90
33095;DHT22;19459;53.044;8.910;2022-08-16T15:38:05;27.90;99.90
33095;DHT22;19459;53.044;8.910;2022-08-16T15:40:31;28.00;99.90
33095;DHT22;19459;53.044;8.910;2022-08-16T15:42:59;28.30;99.90
33095;DHT22;19459;53.044;8.910;2022-08-16T15:45:26;28.30;99.90
33095;DHT22;19459;53.044;8.910;2022-08-16T15:48:12;28.10;99.90
33095;DHT22;19459;53.044;8.910;2022-08-16T15:50:39;28.20;99.90
33095;DHT22;19459;53.044;8.910;2022-08-16T15:53:16;28.20;99.90
33095;DHT22;19459;53.044;8.910;2022-08-16T15:55:48;28.00;99.90
33095;DHT22;19459;53.044;8.910;2022-08-16T15:58:16;28.10;99.90
33095;DHT22;19459;53.044;8.910;2022-08-16T16:00:43;27.90;99.90
33095;DHT22;19459;53.044;8.910;2022-08-16T16:03:16;28.20;99.90
33095;DHT22;19459;53.044;8.910;2022-08-16T16:05:45;28.30;99.90
33095;DHT22;19459;53.044;8.910;2022-08-16T16:08:15;28.40;99.90
33095;DHT22;19459;53.044;8.910;2022-08-16T16:10:44;28.50;99.90
33095;DHT22;19459;53.044;8.910;2022-08-16T16:13:12;28.60;99.90
33095;DHT22;19459;53.044;8.910;2022-08-16T16:15:43;28.60;99.90
33095;DHT22;19459;53.044;8.910;2022-08-16T16:18:10;28.80;99.90